Vernon, TX (76384)

11:37 PM CDT on June 02, 2015 (GMT -0500)
Vernon | | Change Station
CLOSE
Current Station
Airport
Location: Vernon,
Elevation: 1266 ft
Nearby Weather Stations
Active Advisory: Flood Warning

Elev 1266 ft 34.23 °N, 99.28 °W | Updated 22 minutes ago

Clear
Clear
78 °F
Feels Like 78 °F
N
9
Wind Variable Wind from SSE

Today
High -- | Low -- °F
--% Chance of Precip.
Yesterday
High -- | Low -- °F
Precip. -- in
6:26 AM 8:44 PM
Full, 100% visible
Pressure 29.91 in
Visibility 10.0 miles
Clouds Clear
Dew Point 60 °F
Humidity 55%
Rainfall 0.00 in
Snow Depth Not available.
UV 0 out of 12
Pollen 6.50 out of 12
Air Quality Not available.
Flu Activity Local Activity
METAR KF05 030415Z AUTO 16008KT 10SM CLR 25/16 A2991 RMK AO1 T02530158

More Conditions Fewer Conditions

Pressure 29.91 in
Visibility 10.0 miles
Clouds Clear
Dew Point 60 °F
Humidity 55%
Rainfall 0.00 in
Snow Depth Not available.
UV 0 out of 12
Pollen 6.50 out of 12
Air Quality Not available.
Flu Activity Local Activity
METAR KF05 030415Z AUTO 16008KT 10SM CLR 25/16 A2991 RMK AO1 T02530158

More Conditions Fewer Conditions

10-Day Weather Forecast

×

Almanac

Astronomy

Jun. 02, 2015 Rise Set
Actual Time
Civil Twilight
Nautical Twilight
Astronomical Twilight
Moon
Length of Visible Light
Length of Day
Tomorrow will be .
, % of the Moon is Illuminated

Today's Extremes

State Highs State Lows

Community

WunderPhotos

Upload Photos

1,826,164 photos uploaded!

WunderBlogs® & News

Nearby

Air Quality

  Air Quality AQ Index Pollutant
Not available.

Snow Depth

Station Depth Elevation

Earthquake Activity

City Distance Mag. Time & Date
Minimum magnitude displayed is 2.5.

Coastal Water Temperatures

Place Temperature

Stations

Nearby Weather Stations

Station Location Temp. Windchill Dew Point Humidity Wind Precip. Elev Updated Type
                   
Flood Warning
Statement as of 8:26 PM CDT on June 02, 2015

... Flood Warning extended until Thursday morning...

the Flood Warning continues for
the Beaver Creek near Electra

* until Thursday morning... or until the warning is cancelled.

* At 8:00 PM Tuesday the stage was 27.2 feet.

* Moderate flooding is occurring and moderate flooding is forecast.

* Flood stage is 24.0 feet.

* Forecast... the Beaver Creek is near crest and will begin falling
early Wednesday morning. The Beaver Creek will fall below flood
stage early Thursday morning.

* Impact... at 27.0 feet... widespread flood levels up to 3 feet in
depth cover farm and range lands... and may inundate some oil and
gas facilities... along and near the creek in southern Wilbarger
County and southwestern Wichita County.



Lat... Lon 3392 9923 3397 9930 3402 9909 3392 9882
      3386 9881 3396 9911